sensor_id;sensor_type;location;lat;lon;timestamp;pressure;altitude;pressure_sealevel;temperature;humidity
46724;BME280;32463;48.298;11.620;2023-08-12T00:01:28;96744.72;;;17.30;100.00
46724;BME280;32463;48.298;11.620;2023-08-12T00:03:55;96742.00;;;17.17;100.00
46724;BME280;32463;48.298;11.620;2023-08-12T00:06:21;96748.84;;;17.18;100.00
46724;BME280;32463;48.298;11.620;2023-08-12T00:08:48;96743.78;;;17.10;100.00
46724;BME280;32463;48.298;11.620;2023-08-12T00:11:14;96742.66;;;16.98;100.00
46724;BME280;32463;48.298;11.620;2023-08-12T00:13:41;96740.03;;;16.76;100.00
46724;BME280;32463;48.298;11.620;2023-08-12T00:16:07;96741.53;;;16.64;100.00
46724;BME280;32463;48.298;11.620;2023-08-12T00:18:33;96729.16;;;16.58;100.00
46724;BME280;32463;48.298;11.620;2023-08-12T00:21:06;96742.59;;;16.55;100.00
46724;BME280;32463;48.298;11.620;2023-08-12T00:23:37;96738.13;;;16.49;100.00
46724;BME280;32463;48.298;11.620;2023-08-12T00:26:04;96737.25;;;16.42;100.00
46724;BME280;32463;48.298;11.620;2023-08-12T00:28:31;96735.00;;;16.39;100.00
46724;BME280;32463;48.298;11.620;2023-08-12T00:30:57;96736.53;;;16.33;100.00
46724;BME280;32463;48.298;11.620;2023-08-12T00:33:23;96735.81;;;16.25;100.00
46724;BME280;32463;48.298;11.620;2023-08-12T00:35:50;96731.34;;;16.19;100.00
46724;BME280;32463;48.298;11.620;2023-08-12T00:38:16;96732.34;;;16.17;100.00
46724;BME280;32463;48.298;11.620;2023-08-12T00:40:43;96729.72;;;16.17;100.00
46724;BME280;32463;48.298;11.620;2023-08-12T00:43:10;96731.09;;;16.13;100.00
46724;BME280;32463;48.298;11.620;2023-08-12T00:45:37;96729.84;;;16.09;100.00
46724;BME280;32463;48.298;11.620;2023-08-12T00:48:04;96727.22;;;16.09;100.00
46724;BME280;32463;48.298;11.620;2023-08-12T00:50:32;96722.72;;;16.03;100.00
46724;BME280;32463;48.298;11.620;2023-08-12T00:52:58;96727.94;;;16.03;100.00
46724;BME280;32463;48.298;11.620;2023-08-12T00:55:25;96728.66;;;15.97;100.00
46724;BME280;32463;48.298;11.620;2023-08-12T00:57:52;96724.09;;;15.85;100.00
46724;BME280;32463;48.298;11.620;2023-08-12T01:00:19;96724.28;;;15.83;100.00
46724;BME280;32463;48.298;11.620;2023-08-12T01:02:46;96726.88;;;15.83;100.00
46724;BME280;32463;48.298;11.620;2023-08-12T01:05:14;96730.03;;;15.78;100.00
46724;BME280;32463;48.298;11.620;2023-08-12T01:07:42;96721.13;;;15.73;100.00
46724;BME280;32463;48.298;11.620;2023-08-12T01:10:10;96724.72;;;15.72;100.00
46724;BME280;32463;48.298;11.620;2023-08-12T01:15:28;96718.50;;;15.73;100.00
46724;BME280;32463;48.298;11.620;2023-08-12T01:17:55;96715.00;;;15.66;100.00
46724;BME280;32463;48.298;11.620;2023-08-12T01:20:24;96708.88;;;15.59;100.00
46724;BME280;32463;48.298;11.620;2023-08-12T01:25:36;96700.22;;;15.58;100.00
46724;BME280;32463;48.298;11.620;2023-08-12T01:28:03;96700.72;;;15.54;100.00
46724;BME280;32463;48.298;11.620;2023-08-12T01:30:29;96700.41;;;15.57;100.00
46724;BME280;32463;48.298;11.620;2023-08-12T01:33:39;96700.84;;;15.60;100.00
46724;BME280;32463;48.298;11.620;2023-08-12T01:36:19;96697.69;;;15.65;100.00
46724;BME280;32463;48.298;11.620;2023-08-12T01:38:46;96692.38;;;15.73;100.00
46724;BME280;32463;48.298;11.620;2023-08-12T01:41:16;96694.78;;;15.60;100.00
46724;BME280;32463;48.298;11.620;2023-08-12T01:43:44;96701.38;;;15.56;100.00
46724;BME280;32463;48.298;11.620;2023-08-12T01:46:11;96695.06;;;15.50;100.00
46724;BME280;32463;48.298;11.620;2023-08-12T01:48:38;96694.59;;;15.46;100.00
46724;BME280;32463;48.298;11.620;2023-08-12T01:51:04;96693.69;;;15.39;100.00
46724;BME280;32463;48.298;11.620;2023-08-12T01:53:31;96693.69;;;15.39;100.00
46724;BME280;32463;48.298;11.620;2023-08-12T01:55:57;96687.84;;;15.37;100.00
46724;BME280;32463;48.298;11.620;2023-08-12T01:58:24;96684.22;;;15.38;100.00
46724;BME280;32463;48.298;11.620;2023-08-12T02:00:52;96679.19;;;15.37;100.00
46724;BME280;32463;48.298;11.620;2023-08-12T02:03:17;96678.09;;;15.31;100.00
46724;BME280;32463;48.298;11.620;2023-08-12T02:05:45;96675.41;;;15.25;100.00
46724;BME280;32463;48.298;11.620;2023-08-12T02:08:11;96679.47;;;15.27;100.00
46724;BME280;32463;48.298;11.620;2023-08-12T02:10:39;96669.28;;;15.47;100.00
46724;BME280;32463;48.298;11.620;2023-08-12T02:13:05;96670.09;;;15.47;100.00
46724;BME280;32463;48.298;11.620;2023-08-12T02:15:31;96668.19;;;15.41;100.00
46724;BME280;32463;48.298;11.620;2023-08-12T02:17:58;96669.47;;;15.45;100.00
46724;BME280;32463;48.298;11.620;2023-08-12T02:20:25;96659.47;;;15.64;100.00
46724;BME280;32463;48.298;11.620;2023-08-12T02:22:51;96653.69;;;15.54;100.00
46724;BME280;32463;48.298;11.620;2023-08-12T02:25:20;96651.97;;;15.46;100.00
46724;BME280;32463;48.298;11.620;2023-08-12T02:27:49;96650.97;;;15.32;100.00
46724;BME280;32463;48.298;11.620;2023-08-12T02:30:18;96650.63;;;15.21;100.00
46724;BME280;32463;48.298;11.620;2023-08-12T02:32:44;96651.53;;;15.13;100.00
46724;BME280;32463;48.298;11.620;2023-08-12T02:35:11;96657.09;;;15.10;100.00
46724;BME280;32463;48.298;11.620;2023-08-12T02:37:38;96661.69;;;15.08;100.00
46724;BME280;32463;48.298;11.620;2023-08-12T02:40:05;96662.56;;;15.00;100.00
46724;BME280;32463;48.298;11.620;2023-08-12T02:42:31;96657.34;;;15.00;100.00
46724;BME280;32463;48.298;11.620;2023-08-12T02:44:58;96657.28;;;14.94;100.00
46724;BME280;32463;48.298;11.620;2023-08-12T02:47:26;96649.16;;;14.89;100.00
46724;BME280;32463;48.298;11.620;2023-08-12T02:49:53;96655.09;;;14.82;100.00
46724;BME280;32463;48.298;11.620;2023-08-12T02:52:19;96653.13;;;14.85;100.00
46724;BME280;32463;48.298;11.620;2023-08-12T02:54:46;96645.47;;;14.83;100.00
46724;BME280;32463;48.298;11.620;2023-08-12T02:57:12;96643.72;;;14.75;100.00
46724;BME280;32463;48.298;11.620;2023-08-12T02:59:39;96644.72;;;14.74;100.00
46724;BME280;32463;48.298;11.620;2023-08-12T03:02:05;96634.91;;;14.76;100.00
46724;BME280;32463;48.298;11.620;2023-08-12T03:04:32;96639.84;;;14.71;100.00
46724;BME280;32463;48.298;11.620;2023-08-12T03:06:58;96629.69;;;14.76;100.00
46724;BME280;32463;48.298;11.620;2023-08-12T03:09:24;96630.38;;;14.70;100.00
46724;BME280;32463;48.298;11.620;2023-08-12T03:11:51;96632.00;;;14.71;100.00
46724;BME280;32463;48.298;11.620;2023-08-12T03:14:18;96633.16;;;14.69;100.00
46724;BME280;32463;48.298;11.620;2023-08-12T03:16:44;96629.84;;;14.60;100.00
46724;BME280;32463;48.298;11.620;2023-08-12T03:19:11;96630.88;;;14.51;100.00
46724;BME280;32463;48.298;11.620;2023-08-12T03:21:37;96640.97;;;14.54;100.00
46724;BME280;32463;48.298;11.620;2023-08-12T03:24:04;96636.88;;;14.74;100.00
46724;BME280;32463;48.298;11.620;2023-08-12T03:26:30;96646.16;;;14.77;100.00
46724;BME280;32463;48.298;11.620;2023-08-12T03:28:57;96641.75;;;14.77;100.00
46724;BME280;32463;48.298;11.620;2023-08-12T03:31:23;96629.34;;;14.79;100.00
46724;BME280;32463;48.298;11.620;2023-08-12T03:33:50;96635.94;;;14.90;100.00
46724;BME280;32463;48.298;11.620;2023-08-12T03:36:17;96643.38;;;14.78;100.00
46724;BME280;32463;48.298;11.620;2023-08-12T03:38:44;96640.75;;;14.78;100.00
46724;BME280;32463;48.298;11.620;2023-08-12T03:41:11;96635.66;;;14.85;100.00
46724;BME280;32463;48.298;11.620;2023-08-12T03:43:37;96636.41;;;14.71;100.00
46724;BME280;32463;48.298;11.620;2023-08-12T03:46:04;96634.44;;;14.58;100.00
46724;BME280;32463;48.298;11.620;2023-08-12T03:48:31;96636.13;;;14.51;100.00
46724;BME280;32463;48.298;11.620;2023-08-12T03:50:57;96628.00;;;14.46;100.00
46724;BME280;32463;48.298;11.620;2023-08-12T03:53:24;96631.94;;;14.42;100.00
46724;BME280;32463;48.298;11.620;2023-08-12T03:55:50;96641.44;;;14.35;100.00
46724;BME280;32463;48.298;11.620;2023-08-12T03:58:16;96626.13;;;14.55;100.00
46724;BME280;32463;48.298;11.620;2023-08-12T04:00:43;96631.81;;;14.58;100.00
46724;BME280;32463;48.298;11.620;2023-08-12T04:03:09;96632.06;;;14.48;100.00
46724;BME280;32463;48.298;11.620;2023-08-12T04:05:36;96636.47;;;14.40;100.00
46724;BME280;32463;48.298;11.620;2023-08-12T04:08:03;96637.84;;;14.36;100.00
46724;BME280;32463;48.298;11.620;2023-08-12T04:10:30;96637.84;;;14.36;100.00
46724;BME280;32463;48.298;11.620;2023-08-12T04:12:58;96636.66;;;14.38;100.00
46724;BME280;32463;48.298;11.620;2023-08-12T04:15:25;96633.78;;;14.56;100.00
46724;BME280;32463;48.298;11.620;2023-08-12T04:17:51;96634.91;;;14.76;100.00
46724;BME280;32463;48.298;11.620;2023-08-12T04:20:18;96636.41;;;14.71;100.00
46724;BME280;32463;48.298;11.620;2023-08-12T04:22:44;96636.41;;;14.71;100.00
46724;BME280;32463;48.298;11.620;2023-08-12T04:25:11;96639.31;;;14.76;100.00
46724;BME280;32463;48.298;11.620;2023-08-12T04:27:37;96636.63;;;14.84;100.00
46724;BME280;32463;48.298;11.620;2023-08-12T04:30:04;96639.25;;;14.99;100.00
46724;BME280;32463;48.298;11.620;2023-08-12T04:32:31;96639.88;;;15.01;100.00
46724;BME280;32463;48.298;11.620;2023-08-12T04:34:57;96638.25;;;15.00;100.00
46724;BME280;32463;48.298;11.620;2023-08-12T04:37:24;96640.88;;;15.00;100.00
46724;BME280;32463;48.298;11.620;2023-08-12T04:39:51;96636.66;;;14.99;100.00
46724;BME280;32463;48.298;11.620;2023-08-12T04:42:17;96640.06;;;14.99;100.00
46724;BME280;32463;48.298;11.620;2023-08-12T04:44:44;96633.97;;;14.92;100.00
46724;BME280;32463;48.298;11.620;2023-08-12T04:47:11;96634.03;;;14.99;100.00
46724;BME280;32463;48.298;11.620;2023-08-12T04:49:41;96636.22;;;14.95;100.00
46724;BME280;32463;48.298;11.620;2023-08-12T04:52:08;96643.59;;;14.92;100.00
46724;BME280;32463;48.298;11.620;2023-08-12T04:54:34;96639.88;;;15.01;100.00
46724;BME280;32463;48.298;11.620;2023-08-12T04:57:01;96644.47;;;14.99;100.00
46724;BME280;32463;48.298;11.620;2023-08-12T04:59:27;96647.28;;;14.97;100.00
46724;BME280;32463;48.298;11.620;2023-08-12T05:01:54;96647.72;;;15.01;100.00
46724;BME280;32463;48.298;11.620;2023-08-12T05:04:20;96634.63;;;15.24;100.00
46724;BME280;32463;48.298;11.620;2023-08-12T05:06:46;96637.28;;;15.30;100.00
46724;BME280;32463;48.298;11.620;2023-08-12T05:09:14;96635.59;;;15.37;100.00
46724;BME280;32463;48.298;11.620;2023-08-12T05:11:40;96630.19;;;15.54;100.00
46724;BME280;32463;48.298;11.620;2023-08-12T05:14:07;96634.28;;;15.56;100.00
46724;BME280;32463;48.298;11.620;2023-08-12T05:16:33;96638.81;;;15.69;100.00
46724;BME280;32463;48.298;11.620;2023-08-12T05:19:00;96635.75;;;15.65;100.00
46724;BME280;32463;48.298;11.620;2023-08-12T05:21:26;96635.25;;;15.91;100.00
46724;BME280;32463;48.298;11.620;2023-08-12T05:23:52;96634.03;;;15.87;100.00
46724;BME280;32463;48.298;11.620;2023-08-12T05:26:19;96634.31;;;16.13;100.00
46724;BME280;32463;48.298;11.620;2023-08-12T05:28:46;96626.31;;;16.22;100.00
46724;BME280;32463;48.298;11.620;2023-08-12T05:31:12;96632.19;;;16.24;100.00
46724;BME280;32463;48.298;11.620;2023-08-12T05:33:39;96633.31;;;16.36;100.00
46724;BME280;32463;48.298;11.620;2023-08-12T05:36:05;96632.00;;;16.25;100.00
46724;BME280;32463;48.298;11.620;2023-08-12T05:38:32;96632.03;;;16.53;100.00
46724;BME280;32463;48.298;11.620;2023-08-12T05:40:58;96628.28;;;16.77;100.00
46724;BME280;32463;48.298;11.620;2023-08-12T05:43:24;96633.13;;;16.80;100.00
46724;BME280;32463;48.298;11.620;2023-08-12T05:45:51;96631.13;;;17.10;100.00
46724;BME280;32463;48.298;11.620;2023-08-12T05:48:17;96626.50;;;17.12;100.00
46724;BME280;32463;48.298;11.620;2023-08-12T05:50:44;96626.94;;;17.22;100.00
46724;BME280;32463;48.298;11.620;2023-08-12T05:53:10;96627.66;;;17.37;100.00
46724;BME280;32463;48.298;11.620;2023-08-12T05:55:37;96634.13;;;17.41;100.00
46724;BME280;32463;48.298;11.620;2023-08-12T05:58:03;96627.72;;;17.57;100.00
46724;BME280;32463;48.298;11.620;2023-08-12T06:00:30;96629.84;;;17.75;100.00
46724;BME280;32463;48.298;11.620;2023-08-12T06:02:56;96633.13;;;17.83;100.00
46724;BME280;32463;48.298;11.620;2023-08-12T06:05:22;96627.53;;;18.00;100.00
46724;BME280;32463;48.298;11.620;2023-08-12T06:07:49;96627.56;;;18.20;100.00
46724;BME280;32463;48.298;11.620;2023-08-12T06:10:15;96625.16;;;18.25;100.00
46724;BME280;32463;48.298;11.620;2023-08-12T06:12:42;96629.22;;;18.34;100.00
46724;BME280;32463;48.298;11.620;2023-08-12T06:15:09;96629.63;;;18.50;100.00
46724;BME280;32463;48.298;11.620;2023-08-12T06:17:35;96623.59;;;18.70;100.00
46724;BME280;32463;48.298;11.620;2023-08-12T06:20:02;96637.31;;;19.05;100.00
46724;BME280;32463;48.298;11.620;2023-08-12T06:22:29;96624.78;;;19.20;100.00
46724;BME280;32463;48.298;11.620;2023-08-12T06:24:55;96618.72;;;19.00;100.00
46724;BME280;32463;48.298;11.620;2023-08-12T06:27:22;96607.78;;;19.23;100.00
46724;BME280;32463;48.298;11.620;2023-08-12T06:29:48;96607.72;;;19.56;100.00
46724;BME280;32463;48.298;11.620;2023-08-12T06:32:14;96610.56;;;19.54;100.00
46724;BME280;32463;48.298;11.620;2023-08-12T06:34:41;96620.72;;;19.89;100.00
46724;BME280;32463;48.298;11.620;2023-08-12T06:37:07;96620.47;;;20.35;100.00
46724;BME280;32463;48.298;11.620;2023-08-12T06:39:34;96617.16;;;20.77;100.00
46724;BME280;32463;48.298;11.620;2023-08-12T06:42:00;96611.19;;;21.07;100.00
46724;BME280;32463;48.298;11.620;2023-08-12T06:44:28;96616.03;;;21.35;100.00
46724;BME280;32463;48.298;11.620;2023-08-12T06:46:55;96613.84;;;21.80;100.00
46724;BME280;32463;48.298;11.620;2023-08-12T06:49:21;96609.56;;;22.15;100.00
46724;BME280;32463;48.298;11.620;2023-08-12T06:51:48;96611.56;;;22.32;100.00
46724;BME280;32463;48.298;11.620;2023-08-12T06:54:14;96597.22;;;22.28;100.00
46724;BME280;32463;48.298;11.620;2023-08-12T06:56:40;96596.41;;;22.27;100.00
46724;BME280;32463;48.298;11.620;2023-08-12T06:59:07;96588.44;;;22.15;100.00
46724;BME280;32463;48.298;11.620;2023-08-12T07:01:34;96577.91;;;21.97;100.00
46724;BME280;32463;48.298;11.620;2023-08-12T07:04:00;96592.50;;;21.81;100.00
46724;BME280;32463;48.298;11.620;2023-08-12T07:06:26;96588.31;;;21.62;100.00
46724;BME280;32463;48.298;11.620;2023-08-12T07:08:53;96590.06;;;21.50;100.00
46724;BME280;32463;48.298;11.620;2023-08-12T07:11:21;96594.97;;;21.65;100.00
46724;BME280;32463;48.298;11.620;2023-08-12T07:13:47;96588.78;;;21.89;100.00
46724;BME280;32463;48.298;11.620;2023-08-12T07:16:14;96583.31;;;22.02;100.00
46724;BME280;32463;48.298;11.620;2023-08-12T07:18:40;96578.03;;;22.02;100.00
46724;BME280;32463;48.298;11.620;2023-08-12T07:21:07;96580.34;;;22.40;100.00
46724;BME280;32463;48.298;11.620;2023-08-12T07:23:33;96582.75;;;22.42;100.00
46724;BME280;32463;48.298;11.620;2023-08-12T07:26:00;96577.03;;;22.68;100.00
46724;BME280;32463;48.298;11.620;2023-08-12T07:28:27;96580.53;;;22.80;100.00
46724;BME280;32463;48.298;11.620;2023-08-12T07:30:54;96578.94;;;22.91;100.00
46724;BME280;32463;48.298;11.620;2023-08-12T07:33:20;96575.69;;;23.01;100.00
46724;BME280;32463;48.298;11.620;2023-08-12T07:35:47;96580.97;;;23.24;100.00
46724;BME280;32463;48.298;11.620;2023-08-12T07:38:13;96583.81;;;23.46;100.00
46724;BME280;32463;48.298;11.620;2023-08-12T07:40:40;96587.84;;;23.48;100.00
46724;BME280;32463;48.298;11.620;2023-08-12T07:43:07;96584.38;;;23.60;100.00
46724;BME280;32463;48.298;11.620;2023-08-12T07:45:33;96586.41;;;23.81;100.00
46724;BME280;32463;48.298;11.620;2023-08-12T07:48:00;96588.75;;;23.94;100.00
46724;BME280;32463;48.298;11.620;2023-08-12T07:50:26;96584.38;;;24.16;100.00
46724;BME280;32463;48.298;11.620;2023-08-12T07:52:53;96584.78;;;24.37;96.35
46724;BME280;32463;48.298;11.620;2023-08-12T07:55:19;96579.25;;;24.10;99.39
46724;BME280;32463;48.298;11.620;2023-08-12T07:57:46;96582.53;;;24.17;97.76
46724;BME280;32463;48.298;11.620;2023-08-12T08:00:12;96585.34;;;24.10;98.50
46724;BME280;32463;48.298;11.620;2023-08-12T08:02:39;96587.25;;;24.27;100.00
46724;BME280;32463;48.298;11.620;2023-08-12T08:05:06;96589.44;;;24.63;96.96
46724;BME280;32463;48.298;11.620;2023-08-12T08:07:32;96590.28;;;24.97;92.55
46724;BME280;32463;48.298;11.620;2023-08-12T08:09:59;96597.50;;;25.02;89.53
46724;BME280;32463;48.298;11.620;2023-08-12T08:12:26;96584.31;;;25.07;89.80
46724;BME280;32463;48.298;11.620;2023-08-12T08:14:52;96583.13;;;25.36;87.83
46724;BME280;32463;48.298;11.620;2023-08-12T08:17:18;96574.66;;;25.61;90.38
46724;BME280;32463;48.298;11.620;2023-08-12T08:19:45;96576.84;;;25.64;84.10
46724;BME280;32463;48.298;11.620;2023-08-12T08:22:11;96571.41;;;25.76;85.07
46724;BME280;32463;48.298;11.620;2023-08-12T08:24:38;96568.97;;;25.96;85.34
46724;BME280;32463;48.298;11.620;2023-08-12T08:27:05;96575.59;;;26.21;77.09
46724;BME280;32463;48.298;11.620;2023-08-12T08:29:32;96566.84;;;26.52;78.77
46724;BME280;32463;48.298;11.620;2023-08-12T08:31:58;96569.16;;;26.75;76.97
46724;BME280;32463;48.298;11.620;2023-08-12T08:34:26;96567.28;;;27.08;71.92
46724;BME280;32463;48.298;11.620;2023-08-12T08:36:52;96572.81;;;27.48;71.09
46724;BME280;32463;48.298;11.620;2023-08-12T08:39:19;96570.97;;;28.37;66.49
46724;BME280;32463;48.298;11.620;2023-08-12T08:41:47;96568.81;;;28.79;62.31
46724;BME280;32463;48.298;11.620;2023-08-12T08:44:14;96574.09;;;29.30;60.11
46724;BME280;32463;48.298;11.620;2023-08-12T08:46:42;96569.22;;;29.53;57.87
46724;BME280;32463;48.298;11.620;2023-08-12T08:49:10;96570.84;;;29.43;56.98
46724;BME280;32463;48.298;11.620;2023-08-12T08:51:38;96569.13;;;29.73;56.29
46724;BME280;32463;48.298;11.620;2023-08-12T08:54:05;96569.47;;;29.61;55.16
46724;BME280;32463;48.298;11.620;2023-08-12T08:56:32;96561.34;;;28.97;56.76
46724;BME280;32463;48.298;11.620;2023-08-12T08:58:58;96566.16;;;29.00;57.38
46724;BME280;32463;48.298;11.620;2023-08-12T09:01:26;96571.50;;;29.00;57.35
46724;BME280;32463;48.298;11.620;2023-08-12T09:03:53;96567.69;;;29.21;57.30
46724;BME280;32463;48.298;11.620;2023-08-12T09:06:21;96583.25;;;28.83;57.82
46724;BME280;32463;48.298;11.620;2023-08-12T09:08:48;96580.31;;;28.85;59.45
46724;BME280;32463;48.298;11.620;2023-08-12T09:11:17;96576.84;;;28.69;59.89
46724;BME280;32463;48.298;11.620;2023-08-12T09:13:45;96574.97;;;28.65;59.71
46724;BME280;32463;48.298;11.620;2023-08-12T09:16:11;96584.84;;;28.95;57.91
46724;BME280;32463;48.298;11.620;2023-08-12T09:18:38;96586.22;;;29.77;57.54
46724;BME280;32463;48.298;11.620;2023-08-12T09:21:04;96583.84;;;30.25;54.14
46724;BME280;32463;48.298;11.620;2023-08-12T09:23:37;96573.09;;;29.86;54.70
46724;BME280;32463;48.298;11.620;2023-08-12T09:26:20;96572.25;;;29.95;53.65
46724;BME280;32463;48.298;11.620;2023-08-12T09:28:47;96570.00;;;30.52;53.21
46724;BME280;32463;48.298;11.620;2023-08-12T09:31:28;96568.88;;;30.92;52.01
46724;BME280;32463;48.298;11.620;2023-08-12T09:33:59;96575.22;;;31.30;51.37
46724;BME280;32463;48.298;11.620;2023-08-12T09:36:30;96571.97;;;31.04;50.51
46724;BME280;32463;48.298;11.620;2023-08-12T09:38:57;96564.97;;;31.37;49.94
46724;BME280;32463;48.298;11.620;2023-08-12T09:41:25;96569.38;;;31.94;48.53
46724;BME280;32463;48.298;11.620;2023-08-12T09:43:52;96555.47;;;32.30;49.98
46724;BME280;32463;48.298;11.620;2023-08-12T09:46:21;96558.66;;;32.83;47.36
46724;BME280;32463;48.298;11.620;2023-08-12T09:48:49;96555.69;;;33.12;45.70
46724;BME280;32463;48.298;11.620;2023-08-12T09:51:17;96558.19;;;32.95;45.73
46724;BME280;32463;48.298;11.620;2023-08-12T09:53:44;96560.25;;;32.33;46.03
46724;BME280;32463;48.298;11.620;2023-08-12T09:56:17;96555.91;;;31.33;48.96
46724;BME280;32463;48.298;11.620;2023-08-12T09:58:44;96563.59;;;31.39;47.82
46724;BME280;32463;48.298;11.620;2023-08-12T10:01:21;96563.56;;;30.58;50.42
46724;BME280;32463;48.298;11.620;2023-08-12T10:03:49;96556.34;;;30.53;51.01
46724;BME280;32463;48.298;11.620;2023-08-12T10:06:17;96554.91;;;30.32;50.41
46724;BME280;32463;48.298;11.620;2023-08-12T10:08:46;96556.84;;;30.89;49.26
46724;BME280;32463;48.298;11.620;2023-08-12T10:11:13;96551.44;;;30.94;48.92
46724;BME280;32463;48.298;11.620;2023-08-12T10:13:40;96552.72;;;31.02;49.41
46724;BME280;32463;48.298;11.620;2023-08-12T10:16:08;96546.78;;;31.05;49.56
46724;BME280;32463;48.298;11.620;2023-08-12T10:18:36;96552.75;;;30.97;50.22
46724;BME280;32463;48.298;11.620;2023-08-12T10:21:05;96552.34;;;30.17;50.47
46724;BME280;32463;48.298;11.620;2023-08-12T10:23:35;96558.03;;;30.44;50.25
46724;BME280;32463;48.298;11.620;2023-08-12T10:26:07;96555.88;;;31.09;49.56
46724;BME280;32463;48.298;11.620;2023-08-12T10:28:34;96547.41;;;31.92;46.97
46724;BME280;32463;48.298;11.620;2023-08-12T10:31:06;96550.03;;;32.67;45.57
46724;BME280;32463;48.298;11.620;2023-08-12T10:33:37;96563.22;;;32.31;45.65
46724;BME280;32463;48.298;11.620;2023-08-12T10:36:04;96559.09;;;31.06;46.88
46724;BME280;32463;48.298;11.620;2023-08-12T10:38:32;96559.97;;;30.72;47.55
46724;BME280;32463;48.298;11.620;2023-08-12T10:41:17;96552.94;;;31.05;48.25
46724;BME280;32463;48.298;11.620;2023-08-12T10:43:59;96556.63;;;31.38;49.14
46724;BME280;32463;48.298;11.620;2023-08-12T10:46:36;96548.97;;;31.03;48.97
46724;BME280;32463;48.298;11.620;2023-08-12T10:49:07;96546.72;;;30.57;50.82
46724;BME280;32463;48.298;11.620;2023-08-12T10:51:53;96535.50;;;30.50;51.37
46724;BME280;32463;48.298;11.620;2023-08-12T10:54:25;96547.13;;;30.69;51.13
46724;BME280;32463;48.298;11.620;2023-08-12T11:04:48;96534.91;;;32.20;44.82
46724;BME280;32463;48.298;11.620;2023-08-12T11:07:19;96537.78;;;32.94;45.31
46724;BME280;32463;48.298;11.620;2023-08-12T11:09:50;96538.25;;;33.28;43.72
46724;BME280;32463;48.298;11.620;2023-08-12T11:12:28;96535.00;;;33.67;43.95
46724;BME280;32463;48.298;11.620;2023-08-12T11:14:54;96535.13;;;34.12;43.06
46724;BME280;32463;48.298;11.620;2023-08-12T11:17:35;96519.34;;;34.64;40.96
46724;BME280;32463;48.298;11.620;2023-08-12T11:20:05;96522.56;;;33.85;40.94
46724;BME280;32463;48.298;11.620;2023-08-12T11:22:33;96523.94;;;34.63;40.46
46724;BME280;32463;48.298;11.620;2023-08-12T11:25:02;96523.34;;;34.66;38.40
46724;BME280;32463;48.298;11.620;2023-08-12T11:27:36;96528.94;;;34.11;40.34
46724;BME280;32463;48.298;11.620;2023-08-12T11:30:03;96525.88;;;33.41;41.45
46724;BME280;32463;48.298;11.620;2023-08-12T11:32:30;96522.97;;;32.96;42.14
46724;BME280;32463;48.298;11.620;2023-08-12T11:34:57;96522.34;;;34.18;39.17
46724;BME280;32463;48.298;11.620;2023-08-12T11:37:24;96523.38;;;34.97;38.20
46724;BME280;32463;48.298;11.620;2023-08-12T11:39:53;96513.44;;;35.55;38.31
46724;BME280;32463;48.298;11.620;2023-08-12T11:42:20;96508.88;;;36.50;36.35
46724;BME280;32463;48.298;11.620;2023-08-12T11:44:46;96497.81;;;36.26;36.53
46724;BME280;32463;48.298;11.620;2023-08-12T11:47:12;96498.44;;;35.97;37.27
46724;BME280;32463;48.298;11.620;2023-08-12T11:49:39;96498.91;;;36.25;35.88
46724;BME280;32463;48.298;11.620;2023-08-12T11:52:09;96493.97;;;36.44;35.50
46724;BME280;32463;48.298;11.620;2023-08-12T11:54:36;96489.94;;;37.14;34.24
46724;BME280;32463;48.298;11.620;2023-08-12T11:57:03;96491.84;;;37.22;35.68
46724;BME280;32463;48.298;11.620;2023-08-12T11:59:30;96486.03;;;36.39;35.79
46724;BME280;32463;48.298;11.620;2023-08-12T12:01:57;96485.19;;;37.49;33.15
46724;BME280;32463;48.298;11.620;2023-08-12T12:04:24;96489.22;;;36.06;35.97
46724;BME280;32463;48.298;11.620;2023-08-12T12:06:51;96482.28;;;36.87;36.70
46724;BME280;32463;48.298;11.620;2023-08-12T12:09:17;96479.19;;;35.64;35.15
46724;BME280;32463;48.298;11.620;2023-08-12T12:11:45;96483.63;;;36.55;34.82
46724;BME280;32463;48.298;11.620;2023-08-12T12:14:11;96479.03;;;37.90;33.09
46724;BME280;32463;48.298;11.620;2023-08-12T12:16:46;96470.19;;;37.81;33.02
46724;BME280;32463;48.298;11.620;2023-08-12T12:19:17;96473.06;;;37.97;31.68
46724;BME280;32463;48.298;11.620;2023-08-12T12:21:46;96478.44;;;38.84;31.33
46724;BME280;32463;48.298;11.620;2023-08-12T12:24:13;96467.63;;;39.57;31.19
46724;BME280;32463;48.298;11.620;2023-08-12T12:26:39;96471.16;;;40.53;29.04
46724;BME280;32463;48.298;11.620;2023-08-12T12:29:07;96467.91;;;40.48;29.21
46724;BME280;32463;48.298;11.620;2023-08-12T12:31:35;96457.94;;;40.24;29.50
46724;BME280;32463;48.298;11.620;2023-08-12T12:34:02;96461.66;;;40.91;29.39
46724;BME280;32463;48.298;11.620;2023-08-12T12:36:34;96463.41;;;40.83;29.30
46724;BME280;32463;48.298;11.620;2023-08-12T12:39:01;96465.56;;;41.41;27.54
46724;BME280;32463;48.298;11.620;2023-08-12T12:41:28;96457.22;;;42.42;26.86
46724;BME280;32463;48.298;11.620;2023-08-12T12:43:56;96461.03;;;40.38;28.21
46724;BME280;32463;48.298;11.620;2023-08-12T12:46:23;96459.50;;;40.68;29.34
46724;BME280;32463;48.298;11.620;2023-08-12T12:48:50;96461.91;;;39.98;30.85
46724;BME280;32463;48.298;11.620;2023-08-12T12:51:16;96449.91;;;41.18;28.23
46724;BME280;32463;48.298;11.620;2023-08-12T12:53:42;96449.16;;;42.95;26.42
46724;BME280;32463;48.298;11.620;2023-08-12T12:56:09;96450.75;;;42.96;26.93
46724;BME280;32463;48.298;11.620;2023-08-12T12:58:36;96451.88;;;42.72;25.67